createdAt,value
2018-01-01T00:00:46.692Z,72.83
2018-01-01T00:03:15.027Z,73.04
2018-01-01T00:05:43.400Z,73.42
2018-01-01T00:08:11.735Z,73.05
2018-01-01T00:10:41.369Z,73.63
2018-01-01T00:13:10.726Z,74.06
2018-01-01T00:15:39.731Z,74.25
2018-01-01T00:18:08.234Z,74.40
2018-01-01T00:20:36.594Z,74.48
2018-01-01T00:23:04.991Z,74.65
2018-01-01T00:25:34.459Z,74.55
2018-01-01T00:28:05.422Z,74.86
2018-01-01T00:30:34.595Z,75.26
2018-01-01T00:33:03.931Z,75.03
2018-01-01T00:35:34.266Z,74.77
2018-01-01T00:38:03.438Z,74.56
2018-01-01T00:40:32.615Z,74.02
2018-01-01T00:43:00.959Z,74.05
2018-01-01T00:45:29.954Z,73.65
2018-01-01T00:47:59.671Z,73.27
2018-01-01T00:50:28.114Z,72.51
2018-01-01T00:52:57.914Z,71.51
2018-01-01T00:55:28.995Z,71.09
2018-01-01T00:57:58.858Z,71.00
2018-01-01T01:00:28.366Z,70.61
2018-01-01T01:02:56.701Z,69.93
2018-01-01T01:05:25.806Z,69.23
2018-01-01T01:07:56.234Z,68.96
2018-01-01T01:10:26.071Z,68.54
2018-01-01T01:12:54.842Z,68.44
2018-01-01T01:15:23.206Z,68.22
2018-01-01T01:17:52.606Z,67.27
2018-01-01T01:20:21.114Z,67.23
2018-01-01T01:22:50.157Z,66.99
2018-01-01T01:25:19.046Z,66.20
2018-01-01T01:27:49.126Z,66.07
2018-01-01T01:30:18.106Z,65.92
2018-01-01T01:32:47.082Z,65.55
2018-01-01T01:35:15.476Z,65.68
2018-01-01T01:37:45.307Z,65.50
2018-01-01T01:40:15.102Z,64.78
2018-01-01T01:42:43.706Z,64.46
2018-01-01T01:45:12.050Z,64.43
2018-01-01T01:47:40.426Z,64.43
2018-01-01T01:50:08.762Z,64.16
2018-01-01T01:52:37.914Z,64.16
2018-01-01T01:55:06.274Z,63.84
2018-01-01T01:57:34.638Z,63.51
2018-01-01T02:00:02.974Z,63.57
2018-01-01T02:02:31.358Z,63.78
2018-01-01T02:05:00.497Z,63.43
2018-01-01T02:07:28.878Z,62.80
2018-01-01T02:09:57.210Z,62.42
2018-01-01T02:12:26.342Z,62.28
2018-01-01T02:14:54.715Z,62.31
2018-01-01T02:17:23.070Z,62.49
2018-01-01T02:19:52.172Z,61.94
2018-01-01T02:22:21.306Z,61.85
2018-01-01T02:24:49.642Z,61.80
2018-01-01T02:27:18.778Z,61.87
2018-01-01T02:29:47.161Z,61.86
2018-01-01T02:35:15.026Z,61.38
2018-01-01T02:37:43.359Z,61.38
2018-01-01T02:40:11.734Z,61.56
2018-01-01T02:42:40.088Z,61.36
2018-01-01T02:45:08.432Z,61.57
2018-01-01T02:47:36.779Z,61.28
2018-01-01T02:50:05.112Z,61.16
2018-01-01T02:52:33.490Z,60.95
2018-01-01T02:55:01.834Z,61.06
2018-01-01T02:57:30.213Z,61.00
2018-01-01T02:59:58.592Z,60.96
2018-01-01T03:02:26.966Z,60.63
2018-01-01T03:04:55.338Z,60.62
2018-01-01T03:07:24.498Z,60.66
2018-01-01T03:09:52.837Z,60.67
2018-01-01T03:12:21.222Z,60.61
2018-01-01T03:14:49.598Z,60.51
2018-01-01T03:17:18.749Z,59.91
2018-01-01T03:19:47.878Z,60.09
2018-01-01T03:22:17.036Z,59.60
2018-01-01T03:24:45.406Z,58.80
2018-01-01T03:27:13.778Z,58.96
2018-01-01T03:29:42.134Z,58.90
2018-01-01T03:32:10.854Z,58.90
2018-01-01T03:34:39.222Z,58.61
2018-01-01T03:37:07.601Z,58.90
2018-01-01T03:39:35.922Z,58.98
2018-01-01T03:42:04.290Z,58.59
2018-01-01T03:44:32.642Z,58.34
2018-01-01T03:47:00.975Z,58.28
2018-01-01T03:49:29.361Z,58.18
2018-01-01T03:51:58.106Z,58.15
2018-01-01T03:54:27.194Z,58.17
2018-01-01T03:56:56.322Z,58.27
2018-01-01T03:59:24.714Z,58.32
2018-01-01T04:01:53.051Z,57.86
2018-01-01T04:04:22.154Z,58.01
2018-01-01T04:06:50.517Z,57.87
2018-01-01T04:09:19.649Z,57.36
2018-01-01T04:11:47.978Z,57.85
2018-01-01T04:14:16.381Z,57.98
2018-01-01T04:16:45.478Z,57.87
2018-01-01T04:19:14.637Z,57.87
2018-01-01T04:21:42.969Z,57.99
2018-01-01T04:24:11.314Z,58.29
2018-01-01T04:26:40.453Z,58.75
2018-01-01T04:29:08.779Z,59.42
2018-01-01T04:31:37.175Z,60.42
2018-01-01T04:34:06.317Z,61.18
2018-01-01T04:36:34.649Z,61.75
2018-01-01T04:39:03.873Z,62.52
2018-01-01T04:41:33.370Z,63.61
2018-01-01T04:44:02.138Z,63.83
2018-01-01T04:46:31.641Z,64.25
2018-01-01T04:49:00.798Z,64.60
2018-01-01T04:51:29.133Z,65.38
2018-01-01T04:53:57.497Z,66.58
2018-01-01T04:56:25.894Z,67.35
2018-01-01T04:58:54.225Z,67.70
2018-01-01T05:01:22.577Z,67.48
2018-01-01T05:03:50.949Z,67.42
2018-01-01T05:06:19.287Z,67.37
2018-01-01T05:08:47.673Z,67.72
2018-01-01T05:11:16.025Z,67.66
2018-01-01T05:13:44.386Z,68.06
2018-01-01T05:16:12.733Z,68.21
2018-01-01T05:18:41.097Z,68.79
2018-01-01T05:21:09.437Z,68.96
2018-01-01T05:23:38.583Z,69.26
2018-01-01T05:26:07.005Z,68.60
2018-01-01T05:28:35.361Z,69.69
2018-01-01T05:31:03.757Z,71.15
2018-01-01T05:33:32.101Z,71.85
2018-01-01T05:36:00.461Z,72.69
2018-01-01T05:38:28.800Z,75.04
2018-01-01T05:40:57.927Z,76.18
2018-01-01T05:43:26.277Z,76.02
2018-01-01T05:45:55.381Z,76.55
2018-01-01T05:48:24.517Z,76.82
2018-01-01T05:50:52.873Z,77.02
2018-01-01T05:53:21.225Z,77.19
2018-01-01T05:55:50.329Z,77.81
2018-01-01T05:58:18.740Z,78.20
2018-01-01T06:00:47.068Z,78.61
2018-01-01T06:03:15.436Z,77.97
2018-01-01T06:05:43.773Z,78.55
2018-01-01T06:08:12.152Z,78.94
2018-01-01T06:10:40.466Z,78.61
2018-01-01T06:13:08.832Z,78.84
2018-01-01T06:15:37.152Z,79.29
2018-01-01T06:18:07.032Z,79.72
2018-01-01T06:20:35.496Z,79.87
2018-01-01T06:23:03.832Z,79.40
2018-01-01T06:25:32.192Z,79.25
2018-01-01T06:28:02.037Z,79.06
2018-01-01T06:30:30.384Z,79.17
2018-01-01T06:32:59.520Z,78.22
2018-01-01T06:35:27.908Z,77.70
2018-01-01T06:37:56.240Z,79.67
2018-01-01T06:40:25.332Z,79.90
2018-01-01T06:42:54.521Z,80.14
2018-01-01T06:45:22.844Z,80.70
2018-01-01T06:47:51.208Z,80.36
2018-01-01T06:50:20.308Z,80.26
2018-01-01T06:52:48.664Z,80.65
2018-01-01T06:55:17.788Z,81.14
2018-01-01T06:57:46.131Z,81.03
2018-01-01T07:00:15.260Z,81.71
2018-01-01T07:02:43.592Z,82.37
2018-01-01T07:05:12.700Z,83.04
2018-01-01T07:07:41.834Z,83.10
2018-01-01T07:10:10.207Z,83.70
2018-01-01T07:12:38.540Z,83.34
2018-01-01T07:15:07.688Z,83.35
2018-01-01T07:17:36.034Z,83.09
2018-01-01T07:20:04.773Z,83.46
2018-01-01T07:22:33.124Z,83.85
2018-01-01T07:25:01.451Z,83.92
2018-01-01T07:27:29.808Z,84.13
2018-01-01T07:29:58.165Z,84.15
2018-01-01T07:32:30.374Z,84.30
2018-01-01T07:34:58.800Z,84.41
2018-01-01T07:37:27.135Z,84.54
2018-01-01T07:39:56.620Z,84.34
2018-01-01T07:42:24.991Z,84.46
2018-01-01T07:44:54.819Z,84.42
2018-01-01T07:47:23.188Z,84.23
2018-01-01T07:49:51.955Z,84.33
2018-01-01T07:54:55.035Z,84.23
2018-01-01T07:57:23.388Z,84.09
2018-01-01T07:59:52.555Z,83.97
2018-01-01T08:02:21.651Z,83.41
2018-01-01T08:04:49.969Z,83.07
2018-01-01T08:07:19.459Z,82.68
2018-01-01T08:09:48.563Z,82.48
2018-01-01T08:12:16.934Z,81.64
2018-01-01T08:14:46.043Z,81.07
2018-01-01T08:17:14.492Z,80.97
2018-01-01T08:19:43.580Z,80.58
2018-01-01T08:22:11.895Z,80.44
2018-01-01T08:24:40.248Z,80.77
2018-01-01T08:27:09.755Z,80.81
2018-01-01T08:29:39.627Z,80.48
2018-01-01T08:32:08.367Z,80.16
2018-01-01T08:34:37.524Z,80.12
2018-01-01T08:37:05.906Z,79.93
2018-01-01T08:39:35.756Z,79.64
2018-01-01T08:42:04.119Z,79.65
2018-01-01T08:44:32.625Z,79.48
2018-01-01T08:47:02.191Z,79.90
2018-01-01T08:49:30.565Z,80.43
2018-01-01T08:51:58.999Z,80.76
2018-01-01T08:54:27.343Z,81.06
2018-01-01T08:56:56.895Z,81.38
2018-01-01T08:59:26.603Z,81.23
2018-01-01T09:01:54.967Z,81.37
2018-01-01T09:04:23.983Z,81.27
2018-01-01T09:06:52.571Z,80.48
2018-01-01T09:09:21.011Z,79.64
2018-01-01T09:11:49.447Z,79.23
2018-01-01T09:14:17.808Z,79.28
2018-01-01T09:16:46.710Z,79.29
2018-01-01T09:19:15.223Z,79.14
2018-01-01T09:21:44.978Z,78.57
2018-01-01T09:24:13.336Z,78.13
2018-01-01T09:26:41.739Z,76.99
2018-01-01T09:29:11.534Z,76.45
2018-01-01T09:31:40.275Z,75.85
2018-01-01T09:34:08.658Z,75.37
2018-01-01T09:36:37.042Z,73.86
2018-01-01T09:39:06.163Z,73.08
2018-01-01T09:41:34.491Z,72.71
2018-01-01T09:44:02.922Z,71.81
2018-01-01T09:46:42.006Z,71.38
2018-01-01T09:49:10.783Z,70.37
2018-01-01T09:51:39.547Z,70.14
2018-01-01T09:54:07.880Z,70.17
2018-01-01T09:56:37.016Z,70.68
2018-01-01T09:59:05.387Z,71.26
2018-01-01T10:01:33.730Z,70.75
2018-01-01T10:04:02.879Z,70.10
2018-01-01T10:06:31.247Z,70.33
2018-01-01T10:08:59.582Z,70.51
2018-01-01T10:11:28.702Z,68.01
2018-01-01T10:13:57.035Z,67.34
2018-01-01T10:16:26.178Z,66.63
2018-01-01T10:18:54.509Z,65.92
2018-01-01T10:21:22.857Z,64.59
2018-01-01T10:23:51.223Z,64.44
2018-01-01T10:26:19.580Z,64.71
2018-01-01T10:28:47.898Z,64.32
2018-01-01T10:31:16.266Z,64.22
2018-01-01T10:33:44.594Z,62.08
2018-01-01T10:36:13.676Z,62.66
2018-01-01T10:38:42.845Z,62.36
2018-01-01T10:41:11.194Z,61.69
2018-01-01T10:43:39.538Z,60.76
2018-01-01T10:46:08.682Z,60.23
2018-01-01T10:48:37.113Z,60.13
2018-01-01T10:51:05.445Z,60.09
2018-01-01T10:53:33.857Z,60.64
2018-01-01T10:56:02.886Z,60.83
2018-01-01T10:58:31.255Z,60.93
2018-01-01T11:01:11.217Z,61.70
2018-01-01T11:03:39.593Z,62.68
2018-01-01T11:06:07.975Z,62.83
2018-01-01T11:08:37.695Z,65.36
2018-01-01T11:11:06.155Z,61.30
2018-01-01T11:13:35.245Z,61.22
2018-01-01T11:16:03.618Z,60.74
2018-01-01T11:18:32.722Z,60.44
2018-01-01T11:21:01.053Z,60.78
2018-01-01T11:23:29.407Z,61.84
2018-01-01T11:25:57.723Z,61.03
2018-01-01T11:28:26.071Z,60.38
2018-01-01T11:30:54.419Z,61.62
2018-01-01T11:33:23.541Z,58.62
2018-01-01T11:35:51.881Z,57.67
2018-01-01T11:38:20.743Z,57.13
2018-01-01T11:40:49.461Z,56.84
2018-01-01T11:43:17.862Z,57.75
2018-01-01T11:45:47.001Z,57.23
2018-01-01T11:48:15.733Z,57.30
2018-01-01T11:50:44.914Z,57.87
2018-01-01T11:53:14.038Z,56.29
2018-01-01T11:55:42.449Z,55.05
2018-01-01T11:58:11.606Z,56.56
2018-01-01T12:00:40.369Z,58.09
2018-01-01T12:03:08.693Z,58.80
2018-01-01T12:05:37.144Z,59.58
2018-01-01T12:08:05.502Z,59.96
2018-01-01T12:10:34.702Z,59.80
2018-01-01T12:13:03.412Z,59.94
2018-01-01T12:15:31.818Z,60.25
2018-01-01T12:18:01.089Z,60.24
2018-01-01T12:20:31.608Z,60.31
2018-01-01T12:23:01.351Z,60.67
2018-01-01T12:25:32.780Z,59.86
2018-01-01T12:28:01.152Z,59.57
2018-01-01T12:30:31.229Z,59.59
2018-01-01T12:33:00.807Z,59.52
2018-01-01T12:35:29.921Z,58.54
2018-01-01T12:37:59.154Z,57.52
2018-01-01T12:40:27.538Z,57.50
2018-01-01T12:42:58.777Z,57.53
2018-01-01T12:45:27.309Z,57.15
2018-01-01T12:48:06.109Z,56.81
2018-01-01T12:50:35.577Z,55.92
2018-01-01T12:53:04.672Z,56.28
2018-01-01T12:55:33.094Z,56.38
2018-01-01T12:58:04.428Z,56.79
2018-01-01T13:00:33.884Z,55.98
2018-01-01T13:03:03.051Z,55.50
2018-01-01T13:05:32.398Z,56.20
2018-01-01T13:08:04.620Z,56.08
2018-01-01T13:10:32.965Z,55.89
2018-01-01T13:13:01.361Z,56.03
2018-01-01T13:15:29.700Z,56.42
2018-01-01T13:17:58.052Z,56.36
2018-01-01T13:20:27.196Z,56.34
2018-01-01T13:22:55.540Z,56.13
2018-01-01T13:25:24.637Z,56.81
2018-01-01T13:27:54.129Z,56.92
2018-01-01T13:30:22.528Z,57.46
2018-01-01T13:32:52.708Z,57.04
2018-01-01T13:35:21.080Z,56.58
2018-01-01T13:37:49.448Z,55.34
2018-01-01T13:40:17.912Z,55.72
2018-01-01T13:42:47.755Z,57.34
2018-01-01T13:45:16.088Z,58.45
2018-01-01T13:47:44.592Z,59.34
2018-01-01T13:50:16.477Z,59.85
2018-01-01T13:52:44.840Z,59.63
2018-01-01T13:55:13.612Z,59.91
2018-01-01T13:57:41.920Z,59.36
2018-01-01T14:00:10.873Z,59.87
2018-01-01T14:02:39.208Z,59.33
2018-01-01T14:05:08.374Z,58.64
2018-01-01T14:07:36.724Z,59.03
2018-01-01T14:10:05.128Z,60.72
2018-01-01T14:12:34.620Z,62.37
2018-01-01T14:15:04.216Z,63.06
2018-01-01T14:17:33.504Z,63.86
2018-01-01T14:20:02.622Z,64.69
2018-01-01T14:22:31.413Z,65.19
2018-01-01T14:24:59.830Z,66.00
2018-01-01T14:27:28.587Z,67.05
2018-01-01T14:29:57.692Z,67.55
2018-01-01T14:32:27.764Z,68.62
2018-01-01T14:34:56.112Z,69.10
2018-01-01T14:37:24.489Z,69.55
2018-01-01T14:39:52.812Z,70.00
2018-01-01T14:42:22.444Z,70.50
2018-01-01T14:44:50.792Z,70.90
2018-01-01T14:47:19.892Z,71.81
2018-01-01T14:49:48.248Z,71.94
2018-01-01T14:52:18.059Z,72.95
2018-01-01T14:54:47.196Z,73.41
2018-01-01T14:57:15.544Z,73.51
2018-01-01T14:59:43.908Z,75.44
2018-01-01T15:02:12.277Z,76.20
2018-01-01T15:04:41.001Z,76.69
2018-01-01T15:07:09.349Z,76.64
2018-01-01T15:09:38.756Z,77.60
2018-01-01T15:12:07.469Z,77.77
2018-01-01T15:14:35.817Z,78.72
2018-01-01T15:17:04.173Z,78.61
2018-01-01T15:19:33.270Z,78.66
2018-01-01T15:22:01.633Z,79.61
2018-01-01T15:24:30.397Z,79.59
2018-01-01T15:26:58.746Z,79.26
2018-01-01T15:29:27.653Z,79.21
2018-01-01T15:31:56.052Z,80.20
2018-01-01T15:34:24.377Z,79.93
2018-01-01T15:36:52.720Z,79.58
2018-01-01T15:39:21.085Z,80.50
2018-01-01T15:41:50.180Z,79.90
2018-01-01T15:44:19.917Z,79.84
2018-01-01T15:46:49.080Z,79.87
2018-01-01T15:49:18.240Z,79.99
2018-01-01T15:51:47.323Z,80.05
2018-01-01T15:54:17.267Z,80.29
2018-01-01T15:56:45.721Z,80.56
2018-01-01T15:59:15.634Z,80.89
2018-01-01T16:01:47.997Z,80.70
2018-01-01T16:04:16.727Z,80.95
2018-01-01T16:06:46.281Z,81.15
2018-01-01T16:09:14.632Z,80.98
2018-01-01T16:11:43.012Z,81.16
2018-01-01T16:14:11.385Z,81.05
2018-01-01T16:16:39.713Z,81.07
2018-01-01T16:19:09.025Z,81.30
2018-01-01T16:21:37.512Z,81.79
2018-01-01T16:24:07.359Z,81.61
2018-01-01T16:26:38.647Z,81.90
2018-01-01T16:29:07.435Z,82.36
2018-01-01T16:31:39.289Z,82.31
2018-01-01T16:34:08.426Z,82.82
2018-01-01T16:36:37.511Z,82.66
2018-01-01T16:39:09.495Z,82.13
2018-01-01T16:41:37.900Z,82.11
2018-01-01T16:44:06.299Z,81.70
2018-01-01T16:46:36.579Z,81.62
2018-01-01T16:49:07.232Z,81.29
2018-01-01T16:51:38.004Z,81.13
2018-01-01T16:54:06.587Z,80.43
2018-01-01T16:56:37.948Z,79.88
2018-01-01T16:59:06.665Z,79.95
2018-01-01T17:01:43.259Z,79.83
2018-01-01T17:04:12.480Z,79.64
2018-01-01T17:06:42.100Z,79.26
2018-01-01T17:09:11.655Z,79.16
2018-01-01T17:11:40.411Z,79.06
2018-01-01T17:14:09.079Z,79.08
2018-01-01T17:16:37.432Z,78.92
2018-01-01T17:19:06.676Z,78.88
2018-01-01T17:21:35.860Z,78.85
2018-01-01T17:24:05.945Z,78.66
2018-01-01T17:26:36.369Z,78.54
2018-01-01T17:29:06.084Z,78.39
2018-01-01T17:31:35.916Z,78.54
2018-01-01T17:34:04.370Z,78.64
2018-01-01T17:36:32.743Z,78.48
2018-01-01T17:39:01.862Z,78.24
2018-01-01T17:41:30.994Z,77.79
2018-01-01T17:44:00.142Z,77.70
2018-01-01T17:46:29.276Z,77.69
2018-01-01T17:48:57.735Z,77.65
2018-01-01T17:51:26.487Z,77.33
2018-01-01T17:53:56.131Z,76.74
2018-01-01T17:56:26.310Z,76.36
2018-01-01T17:58:55.784Z,75.79
2018-01-01T18:01:24.650Z,75.49
2018-01-01T18:03:53.068Z,75.32
2018-01-01T18:06:22.278Z,75.34
2018-01-01T18:08:53.902Z,75.22
2018-01-01T18:11:23.711Z,74.88
2018-01-01T18:13:52.138Z,74.52
2018-01-01T18:16:21.288Z,73.97
2018-01-01T18:18:50.847Z,73.61
2018-01-01T18:21:20.024Z,73.44
2018-01-01T18:23:48.447Z,72.89
2018-01-01T18:26:19.188Z,72.47
2018-01-01T18:28:48.770Z,72.03
2018-01-01T18:31:17.590Z,71.57
2018-01-01T18:33:47.872Z,71.31
2018-01-01T18:36:17.768Z,71.08
2018-01-01T18:38:46.304Z,70.62
2018-01-01T18:41:16.924Z,69.82
2018-01-01T18:43:45.532Z,69.83
2018-01-01T18:46:21.329Z,69.61
2018-01-01T18:48:50.912Z,69.00
2018-01-01T18:51:21.079Z,68.37
2018-01-01T18:53:51.011Z,68.97
2018-01-01T18:56:19.820Z,68.62
2018-01-01T18:58:49.967Z,68.58
2018-01-01T19:01:21.642Z,68.55
2018-01-01T19:03:55.212Z,68.76
2018-01-01T19:06:23.582Z,67.58
2018-01-01T19:08:52.548Z,67.02
2018-01-01T19:11:20.974Z,67.31
2018-01-01T19:13:49.375Z,67.36
2018-01-01T19:16:19.634Z,67.37
2018-01-01T19:18:48.062Z,67.46
2018-01-01T19:21:17.201Z,67.64
2018-01-01T19:23:49.813Z,67.70
2018-01-01T19:26:19.674Z,67.60
2018-01-01T19:28:49.482Z,67.86
2018-01-01T19:31:18.248Z,67.69
2018-01-01T19:33:47.848Z,68.05
2018-01-01T19:36:17.592Z,68.39
2018-01-01T19:38:46.862Z,68.92
2018-01-01T19:41:16.266Z,69.29
2018-01-01T19:43:46.402Z,69.83
2018-01-01T19:46:17.532Z,70.04
2018-01-01T19:48:46.872Z,70.10
2018-01-01T19:51:19.778Z,70.45
2018-01-01T19:53:49.417Z,70.82
2018-01-01T19:56:18.905Z,70.94
2018-01-01T19:58:49.065Z,71.27
2018-01-01T20:01:19.343Z,71.68
2018-01-01T20:03:48.734Z,71.97
2018-01-01T20:06:17.154Z,72.17
2018-01-01T20:08:49.530Z,72.25
2018-01-01T20:11:21.085Z,72.29
2018-01-01T20:13:52.065Z,72.51
2018-01-01T20:16:25.361Z,72.45
2018-01-01T20:18:57.137Z,72.69
2018-01-01T20:21:26.449Z,72.93
2018-01-01T20:23:54.870Z,73.14
2018-01-01T20:26:25.398Z,73.53
2018-01-01T20:28:55.181Z,73.77
2018-01-01T20:31:24.321Z,73.93
2018-01-01T20:33:52.725Z,74.07
2018-01-01T20:36:23.565Z,74.23
2018-01-01T20:38:51.907Z,74.38
2018-01-01T20:41:21.409Z,74.43
2018-01-01T20:43:50.898Z,74.49
2018-01-01T20:46:39.729Z,74.63
2018-01-01T20:49:10.526Z,74.59
2018-01-01T20:51:40.394Z,74.49
2018-01-01T20:54:09.133Z,74.01
2018-01-01T20:56:41.266Z,73.87
2018-01-01T20:59:10.889Z,73.79
2018-01-01T21:01:41.682Z,73.83
2018-01-01T21:04:11.562Z,73.93
2018-01-01T21:06:40.685Z,73.86
2018-01-01T21:09:12.033Z,73.47
2018-01-01T21:11:41.601Z,73.08
2018-01-01T21:14:11.641Z,72.87
2018-01-01T21:16:40.861Z,72.67
2018-01-01T21:19:09.820Z,72.22
2018-01-01T21:21:39.202Z,71.94
2018-01-01T21:24:08.745Z,71.74
2018-01-01T21:26:37.501Z,71.27
2018-01-01T21:29:05.862Z,71.20
2018-01-01T21:31:34.941Z,71.08
2018-01-01T21:34:04.676Z,71.11
2018-01-01T21:36:33.032Z,71.01
2018-01-01T21:39:01.417Z,71.10
2018-01-01T21:41:30.213Z,70.87
2018-01-01T21:43:59.473Z,70.70
2018-01-01T21:46:28.680Z,70.33
2018-01-01T21:48:57.760Z,70.45
2018-01-01T21:51:26.109Z,70.43
2018-01-01T21:53:54.469Z,70.47
2018-01-01T21:56:23.742Z,70.46
2018-01-01T21:58:52.124Z,70.57
2018-01-01T22:01:20.524Z,70.33
2018-01-01T22:03:50.229Z,70.29
2018-01-01T22:06:18.557Z,70.35
2018-01-01T22:08:46.925Z,70.29
2018-01-01T22:11:16.036Z,70.33
2018-01-01T22:13:44.424Z,70.31
2018-01-01T22:16:13.844Z,70.39
2018-01-01T22:18:43.590Z,70.42
2018-01-01T22:21:12.766Z,70.79
2018-01-01T22:23:41.096Z,71.32
2018-01-01T22:26:10.272Z,71.69
2018-01-01T22:28:42.140Z,71.63
2018-01-01T22:31:11.520Z,71.67
2018-01-01T22:33:39.906Z,71.60
2018-01-01T22:36:08.425Z,71.83
2018-01-01T22:38:37.546Z,71.95
2018-01-01T22:41:05.945Z,72.08
2018-01-01T22:43:34.712Z,72.36
2018-01-01T22:46:03.388Z,72.46
2018-01-01T22:48:33.208Z,72.73
2018-01-01T22:51:01.588Z,72.90
2018-01-01T22:53:29.992Z,73.22
2018-01-01T22:55:59.257Z,73.07
2018-01-01T22:58:27.613Z,73.38
2018-01-01T23:00:55.972Z,73.36
2018-01-01T23:03:24.285Z,73.34
2018-01-01T23:05:53.424Z,73.15
2018-01-01T23:08:22.577Z,72.92
2018-01-01T23:10:51.704Z,72.99
2018-01-01T23:13:20.040Z,73.01
2018-01-01T23:15:49.180Z,73.02
2018-01-01T23:18:18.356Z,72.91
2018-01-01T23:20:48.190Z,72.86
2018-01-01T23:23:16.520Z,72.71
2018-01-01T23:25:46.389Z,72.68
2018-01-01T23:28:14.760Z,72.53
2018-01-01T23:30:43.160Z,72.39
2018-01-01T23:33:11.531Z,71.95
2018-01-01T23:35:39.872Z,71.77
2018-01-01T23:38:08.608Z,71.59
2018-01-01T23:40:36.964Z,71.43
2018-01-01T23:43:05.337Z,71.34
2018-01-01T23:45:34.064Z,71.09
2018-01-01T23:48:02.396Z,70.97
2018-01-01T23:50:30.792Z,71.11
2018-01-01T23:52:59.178Z,71.10
2018-01-01T23:55:27.565Z,70.97
2018-01-01T23:57:55.888Z,71.02
